sensor_id;sensor_type;location;lat;lon;timestamp;P1;durP1;ratioP1;P2;durP2;ratioP2
13108;SDS011;6620;53.734;11.510;2022-12-18T00:01:25;47.20;;;18.30;;
13108;SDS011;6620;53.734;11.510;2022-12-18T00:03:51;43.83;;;17.85;;
13108;SDS011;6620;53.734;11.510;2022-12-18T00:06:17;41.30;;;16.67;;
13108;SDS011;6620;53.734;11.510;2022-12-18T00:08:42;45.58;;;17.50;;
13108;SDS011;6620;53.734;11.510;2022-12-18T00:11:08;40.10;;;16.30;;
13108;SDS011;6620;53.734;11.510;2022-12-18T00:13:35;46.78;;;18.00;;
13108;SDS011;6620;53.734;11.510;2022-12-18T00:16:01;46.03;;;18.10;;
13108;SDS011;6620;53.734;11.510;2022-12-18T00:18:27;41.45;;;16.52;;
13108;SDS011;6620;53.734;11.510;2022-12-18T00:20:52;45.80;;;18.33;;
13108;SDS011;6620;53.734;11.510;2022-12-18T00:23:17;41.40;;;17.23;;
13108;SDS011;6620;53.734;11.510;2022-12-18T00:25:42;43.53;;;16.27;;
13108;SDS011;6620;53.734;11.510;2022-12-18T00:28:07;38.90;;;17.00;;
13108;SDS011;6620;53.734;11.510;2022-12-18T00:30:32;38.53;;;16.13;;
13108;SDS011;6620;53.734;11.510;2022-12-18T00:32:58;49.15;;;16.90;;
13108;SDS011;6620;53.734;11.510;2022-12-18T00:35:23;40.67;;;15.70;;
13108;SDS011;6620;53.734;11.510;2022-12-18T00:37:48;42.87;;;15.40;;
13108;SDS011;6620;53.734;11.510;2022-12-18T00:40:13;43.33;;;16.25;;
13108;SDS011;6620;53.734;11.510;2022-12-18T00:42:38;46.57;;;17.03;;
13108;SDS011;6620;53.734;11.510;2022-12-18T00:45:26;47.15;;;17.10;;
13108;SDS011;6620;53.734;11.510;2022-12-18T00:47:52;41.22;;;15.98;;
13108;SDS011;6620;53.734;11.510;2022-12-18T00:50:17;43.13;;;17.33;;
13108;SDS011;6620;53.734;11.510;2022-12-18T00:52:42;22.38;;;9.77;;
13108;SDS011;6620;53.734;11.510;2022-12-18T00:55:08;38.67;;;15.73;;
13108;SDS011;6620;53.734;11.510;2022-12-18T00:57:33;43.53;;;16.88;;
13108;SDS011;6620;53.734;11.510;2022-12-18T00:59:58;40.03;;;15.02;;
13108;SDS011;6620;53.734;11.510;2022-12-18T01:02:23;43.63;;;18.17;;
13108;SDS011;6620;53.734;11.510;2022-12-18T01:04:49;37.97;;;15.95;;
13108;SDS011;6620;53.734;11.510;2022-12-18T01:07:14;37.55;;;15.50;;
13108;SDS011;6620;53.734;11.510;2022-12-18T01:09:39;43.20;;;15.73;;
13108;SDS011;6620;53.734;11.510;2022-12-18T01:12:05;36.47;;;15.63;;
13108;SDS011;6620;53.734;11.510;2022-12-18T01:14:31;41.45;;;16.65;;
13108;SDS011;6620;53.734;11.510;2022-12-18T01:16:57;42.05;;;16.60;;
13108;SDS011;6620;53.734;11.510;2022-12-18T01:19:22;32.92;;;13.00;;
13108;SDS011;6620;53.734;11.510;2022-12-18T01:21:48;45.30;;;16.10;;
13108;SDS011;6620;53.734;11.510;2022-12-18T01:24:13;41.20;;;16.05;;
13108;SDS011;6620;53.734;11.510;2022-12-18T01:26:39;37.83;;;15.45;;
13108;SDS011;6620;53.734;11.510;2022-12-18T01:29:04;40.58;;;15.32;;
13108;SDS011;6620;53.734;11.510;2022-12-18T01:31:31;37.80;;;15.00;;
13108;SDS011;6620;53.734;11.510;2022-12-18T01:33:57;37.00;;;14.05;;
13108;SDS011;6620;53.734;11.510;2022-12-18T01:38:48;37.55;;;14.80;;
13108;SDS011;6620;53.734;11.510;2022-12-18T01:41:14;39.88;;;14.57;;
13108;SDS011;6620;53.734;11.510;2022-12-18T01:43:50;39.42;;;15.13;;
13108;SDS011;6620;53.734;11.510;2022-12-18T01:46:16;39.15;;;15.25;;
13108;SDS011;6620;53.734;11.510;2022-12-18T01:48:42;35.47;;;13.45;;
13108;SDS011;6620;53.734;11.510;2022-12-18T01:51:08;33.22;;;13.60;;
13108;SDS011;6620;53.734;11.510;2022-12-18T01:53:34;36.95;;;15.50;;
13108;SDS011;6620;53.734;11.510;2022-12-18T01:55:59;34.85;;;13.57;;
13108;SDS011;6620;53.734;11.510;2022-12-18T01:58:28;31.88;;;13.15;;
13108;SDS011;6620;53.734;11.510;2022-12-18T02:00:55;30.27;;;12.30;;
13108;SDS011;6620;53.734;11.510;2022-12-18T02:03:20;30.63;;;12.70;;
13108;SDS011;6620;53.734;11.510;2022-12-18T02:06:29;32.05;;;12.82;;
13108;SDS011;6620;53.734;11.510;2022-12-18T02:13:40;31.40;;;13.63;;
13108;SDS011;6620;53.734;11.510;2022-12-18T02:18:34;34.95;;;13.82;;
13108;SDS011;6620;53.734;11.510;2022-12-18T02:21:05;30.23;;;14.48;;
13108;SDS011;6620;53.734;11.510;2022-12-18T02:26:14;30.95;;;12.45;;
13108;SDS011;6620;53.734;11.510;2022-12-18T02:28:46;34.58;;;13.75;;
13108;SDS011;6620;53.734;11.510;2022-12-18T02:31:15;31.80;;;12.55;;
13108;SDS011;6620;53.734;11.510;2022-12-18T02:33:43;30.23;;;12.80;;
13108;SDS011;6620;53.734;11.510;2022-12-18T02:36:09;28.67;;;12.10;;
13108;SDS011;6620;53.734;11.510;2022-12-18T02:38:35;33.40;;;13.05;;
13108;SDS011;6620;53.734;11.510;2022-12-18T02:41:01;28.52;;;12.07;;
13108;SDS011;6620;53.734;11.510;2022-12-18T02:43:27;30.27;;;13.30;;
13108;SDS011;6620;53.734;11.510;2022-12-18T02:45:56;30.60;;;12.77;;
13108;SDS011;6620;53.734;11.510;2022-12-18T02:48:26;30.88;;;12.70;;
13108;SDS011;6620;53.734;11.510;2022-12-18T02:51:11;29.55;;;12.10;;
13108;SDS011;6620;53.734;11.510;2022-12-18T02:53:45;29.23;;;11.93;;
13108;SDS011;6620;53.734;11.510;2022-12-18T02:56:18;31.63;;;11.82;;
13108;SDS011;6620;53.734;11.510;2022-12-18T03:01:13;30.67;;;12.20;;
13108;SDS011;6620;53.734;11.510;2022-12-18T03:03:41;30.33;;;12.43;;
13108;SDS011;6620;53.734;11.510;2022-12-18T03:06:15;32.00;;;11.95;;
13108;SDS011;6620;53.734;11.510;2022-12-18T03:08:44;31.90;;;12.43;;
13108;SDS011;6620;53.734;11.510;2022-12-18T03:11:12;28.77;;;12.20;;
13108;SDS011;6620;53.734;11.510;2022-12-18T03:13:43;29.35;;;11.25;;
13108;SDS011;6620;53.734;11.510;2022-12-18T03:16:11;30.10;;;11.73;;
13108;SDS011;6620;53.734;11.510;2022-12-18T03:18:45;27.38;;;11.15;;
13108;SDS011;6620;53.734;11.510;2022-12-18T03:21:11;28.17;;;11.68;;
13108;SDS011;6620;53.734;11.510;2022-12-18T03:23:46;30.02;;;13.38;;
13108;SDS011;6620;53.734;11.510;2022-12-18T03:26:14;28.35;;;11.55;;
13108;SDS011;6620;53.734;11.510;2022-12-18T03:28:42;29.55;;;11.55;;
13108;SDS011;6620;53.734;11.510;2022-12-18T03:31:09;27.77;;;11.13;;
13108;SDS011;6620;53.734;11.510;2022-12-18T03:33:37;32.20;;;12.65;;
13108;SDS011;6620;53.734;11.510;2022-12-18T03:36:03;27.33;;;11.35;;
13108;SDS011;6620;53.734;11.510;2022-12-18T03:38:29;31.38;;;11.65;;
13108;SDS011;6620;53.734;11.510;2022-12-18T03:45:54;23.65;;;9.23;;
13108;SDS011;6620;53.734;11.510;2022-12-18T03:48:28;28.27;;;11.27;;
13108;SDS011;6620;53.734;11.510;2022-12-18T03:53:25;25.13;;;10.73;;
13108;SDS011;6620;53.734;11.510;2022-12-18T03:55:53;24.88;;;10.63;;
13108;SDS011;6620;53.734;11.510;2022-12-18T03:58:21;24.63;;;10.80;;
13108;SDS011;6620;53.734;11.510;2022-12-18T04:00:48;26.80;;;11.00;;
13108;SDS011;6620;53.734;11.510;2022-12-18T04:03:14;25.95;;;10.80;;
13108;SDS011;6620;53.734;11.510;2022-12-18T04:05:41;25.42;;;10.95;;
13108;SDS011;6620;53.734;11.510;2022-12-18T04:08:07;25.63;;;10.48;;
13108;SDS011;6620;53.734;11.510;2022-12-18T04:10:33;26.75;;;11.05;;
13108;SDS011;6620;53.734;11.510;2022-12-18T04:12:58;24.90;;;9.80;;
13108;SDS011;6620;53.734;11.510;2022-12-18T04:15:23;22.60;;;9.38;;
13108;SDS011;6620;53.734;11.510;2022-12-18T04:17:49;26.00;;;10.55;;
13108;SDS011;6620;53.734;11.510;2022-12-18T04:20:15;23.85;;;10.60;;
13108;SDS011;6620;53.734;11.510;2022-12-18T04:22:40;26.70;;;10.98;;
13108;SDS011;6620;53.734;11.510;2022-12-18T04:25:05;25.30;;;10.63;;
13108;SDS011;6620;53.734;11.510;2022-12-18T04:27:30;28.92;;;11.50;;
13108;SDS011;6620;53.734;11.510;2022-12-18T04:29:56;27.83;;;11.40;;
13108;SDS011;6620;53.734;11.510;2022-12-18T04:32:21;27.93;;;11.17;;
13108;SDS011;6620;53.734;11.510;2022-12-18T04:34:46;25.73;;;10.23;;
13108;SDS011;6620;53.734;11.510;2022-12-18T04:37:11;31.60;;;12.20;;
13108;SDS011;6620;53.734;11.510;2022-12-18T04:39:36;27.20;;;11.10;;
13108;SDS011;6620;53.734;11.510;2022-12-18T04:42:02;25.00;;;11.23;;
13108;SDS011;6620;53.734;11.510;2022-12-18T04:44:27;22.35;;;10.30;;
13108;SDS011;6620;53.734;11.510;2022-12-18T04:46:52;27.53;;;11.13;;
13108;SDS011;6620;53.734;11.510;2022-12-18T04:49:17;28.03;;;11.33;;
13108;SDS011;6620;53.734;11.510;2022-12-18T04:51:42;31.27;;;11.70;;
13108;SDS011;6620;53.734;11.510;2022-12-18T04:54:08;30.17;;;11.45;;
13108;SDS011;6620;53.734;11.510;2022-12-18T04:56:33;27.90;;;10.73;;
13108;SDS011;6620;53.734;11.510;2022-12-18T04:58:58;23.67;;;9.85;;
13108;SDS011;6620;53.734;11.510;2022-12-18T05:01:23;30.43;;;11.47;;
13108;SDS011;6620;53.734;11.510;2022-12-18T05:03:48;25.60;;;10.70;;
13108;SDS011;6620;53.734;11.510;2022-12-18T05:06:14;26.20;;;10.90;;
13108;SDS011;6620;53.734;11.510;2022-12-18T05:08:39;30.17;;;11.83;;
13108;SDS011;6620;53.734;11.510;2022-12-18T05:11:05;30.15;;;11.38;;
13108;SDS011;6620;53.734;11.510;2022-12-18T05:13:33;25.58;;;11.40;;
13108;SDS011;6620;53.734;11.510;2022-12-18T05:15:59;21.83;;;8.20;;
13108;SDS011;6620;53.734;11.510;2022-12-18T05:18:25;27.35;;;10.60;;
13108;SDS011;6620;53.734;11.510;2022-12-18T05:20:50;24.65;;;9.80;;
13108;SDS011;6620;53.734;11.510;2022-12-18T05:23:16;23.20;;;9.32;;
13108;SDS011;6620;53.734;11.510;2022-12-18T05:25:41;27.40;;;10.45;;
13108;SDS011;6620;53.734;11.510;2022-12-18T05:28:06;27.90;;;11.40;;
13108;SDS011;6620;53.734;11.510;2022-12-18T05:30:32;26.02;;;10.05;;
13108;SDS011;6620;53.734;11.510;2022-12-18T05:32:57;26.67;;;10.13;;
13108;SDS011;6620;53.734;11.510;2022-12-18T05:35:22;23.13;;;9.40;;
13108;SDS011;6620;53.734;11.510;2022-12-18T05:37:47;24.57;;;9.90;;
13108;SDS011;6620;53.734;11.510;2022-12-18T05:40:12;23.67;;;9.97;;
13108;SDS011;6620;53.734;11.510;2022-12-18T05:42:38;24.73;;;9.70;;
13108;SDS011;6620;53.734;11.510;2022-12-18T05:45:03;24.10;;;9.63;;
13108;SDS011;6620;53.734;11.510;2022-12-18T05:47:28;25.92;;;10.25;;
13108;SDS011;6620;53.734;11.510;2022-12-18T05:49:54;22.97;;;10.43;;
13108;SDS011;6620;53.734;11.510;2022-12-18T05:52:19;23.65;;;9.15;;
13108;SDS011;6620;53.734;11.510;2022-12-18T05:54:44;26.07;;;10.73;;
13108;SDS011;6620;53.734;11.510;2022-12-18T05:57:09;23.67;;;9.90;;
13108;SDS011;6620;53.734;11.510;2022-12-18T05:59:35;24.90;;;10.65;;
13108;SDS011;6620;53.734;11.510;2022-12-18T06:02:00;25.02;;;9.25;;
13108;SDS011;6620;53.734;11.510;2022-12-18T06:04:26;22.13;;;9.32;;
13108;SDS011;6620;53.734;11.510;2022-12-18T06:06:52;24.73;;;10.00;;
13108;SDS011;6620;53.734;11.510;2022-12-18T06:09:17;24.10;;;9.23;;
13108;SDS011;6620;53.734;11.510;2022-12-18T06:11:42;26.40;;;10.23;;
13108;SDS011;6620;53.734;11.510;2022-12-18T06:14:08;29.98;;;10.57;;
13108;SDS011;6620;53.734;11.510;2022-12-18T06:16:34;23.75;;;9.70;;
13108;SDS011;6620;53.734;11.510;2022-12-18T06:19:00;24.45;;;10.15;;
13108;SDS011;6620;53.734;11.510;2022-12-18T06:21:26;25.00;;;10.35;;
13108;SDS011;6620;53.734;11.510;2022-12-18T06:23:51;25.48;;;10.90;;
13108;SDS011;6620;53.734;11.510;2022-12-18T06:26:16;24.63;;;9.63;;
13108;SDS011;6620;53.734;11.510;2022-12-18T06:28:42;24.30;;;9.70;;
13108;SDS011;6620;53.734;11.510;2022-12-18T06:31:07;22.20;;;8.90;;
13108;SDS011;6620;53.734;11.510;2022-12-18T06:33:33;20.55;;;8.65;;
13108;SDS011;6620;53.734;11.510;2022-12-18T06:36:02;25.42;;;10.18;;
13108;SDS011;6620;53.734;11.510;2022-12-18T06:38:27;24.30;;;9.93;;
13108;SDS011;6620;53.734;11.510;2022-12-18T06:40:53;24.37;;;9.87;;
13108;SDS011;6620;53.734;11.510;2022-12-18T06:43:18;20.67;;;8.77;;
13108;SDS011;6620;53.734;11.510;2022-12-18T06:45:43;22.83;;;9.27;;
13108;SDS011;6620;53.734;11.510;2022-12-18T06:48:08;21.57;;;8.87;;
13108;SDS011;6620;53.734;11.510;2022-12-18T06:50:33;18.77;;;8.13;;
13108;SDS011;6620;53.734;11.510;2022-12-18T06:52:59;24.15;;;9.90;;
13108;SDS011;6620;53.734;11.510;2022-12-18T06:55:24;25.65;;;10.50;;
13108;SDS011;6620;53.734;11.510;2022-12-18T06:57:49;22.38;;;8.95;;
13108;SDS011;6620;53.734;11.510;2022-12-18T07:00:14;24.25;;;9.48;;
13108;SDS011;6620;53.734;11.510;2022-12-18T07:02:39;24.80;;;9.60;;
13108;SDS011;6620;53.734;11.510;2022-12-18T07:05:05;19.05;;;8.73;;
13108;SDS011;6620;53.734;11.510;2022-12-18T07:07:30;26.90;;;10.18;;
13108;SDS011;6620;53.734;11.510;2022-12-18T07:09:56;25.57;;;9.83;;
13108;SDS011;6620;53.734;11.510;2022-12-18T07:12:21;25.17;;;10.20;;
13108;SDS011;6620;53.734;11.510;2022-12-18T07:14:46;21.83;;;9.33;;
13108;SDS011;6620;53.734;11.510;2022-12-18T07:17:11;26.25;;;11.30;;
13108;SDS011;6620;53.734;11.510;2022-12-18T07:19:36;18.63;;;8.43;;
13108;SDS011;6620;53.734;11.510;2022-12-18T07:22:02;26.57;;;10.63;;
13108;SDS011;6620;53.734;11.510;2022-12-18T07:24:27;25.77;;;10.67;;
13108;SDS011;6620;53.734;11.510;2022-12-18T07:26:52;23.50;;;9.95;;
13108;SDS011;6620;53.734;11.510;2022-12-18T07:29:18;23.93;;;9.60;;
13108;SDS011;6620;53.734;11.510;2022-12-18T07:31:43;23.08;;;10.23;;
13108;SDS011;6620;53.734;11.510;2022-12-18T07:34:12;22.75;;;9.68;;
13108;SDS011;6620;53.734;11.510;2022-12-18T07:36:37;23.38;;;11.23;;
13108;SDS011;6620;53.734;11.510;2022-12-18T07:39:02;26.83;;;10.00;;
13108;SDS011;6620;53.734;11.510;2022-12-18T07:41:27;26.70;;;9.88;;
13108;SDS011;6620;53.734;11.510;2022-12-18T07:43:53;21.83;;;9.53;;
13108;SDS011;6620;53.734;11.510;2022-12-18T07:46:19;25.77;;;10.57;;
13108;SDS011;6620;53.734;11.510;2022-12-18T07:48:44;22.40;;;9.00;;
13108;SDS011;6620;53.734;11.510;2022-12-18T07:51:10;31.10;;;11.98;;
13108;SDS011;6620;53.734;11.510;2022-12-18T07:53:37;26.25;;;9.90;;
13108;SDS011;6620;53.734;11.510;2022-12-18T07:56:04;24.00;;;9.60;;
13108;SDS011;6620;53.734;11.510;2022-12-18T07:58:30;26.35;;;10.85;;
13108;SDS011;6620;53.734;11.510;2022-12-18T08:01:03;27.15;;;10.65;;
13108;SDS011;6620;53.734;11.510;2022-12-18T08:03:28;25.73;;;11.43;;
13108;SDS011;6620;53.734;11.510;2022-12-18T08:05:57;27.42;;;11.30;;
13108;SDS011;6620;53.734;11.510;2022-12-18T08:08:23;22.45;;;9.80;;
13108;SDS011;6620;53.734;11.510;2022-12-18T08:10:48;25.70;;;10.70;;
13108;SDS011;6620;53.734;11.510;2022-12-18T08:13:13;22.33;;;9.25;;
13108;SDS011;6620;53.734;11.510;2022-12-18T08:15:38;30.48;;;11.48;;
13108;SDS011;6620;53.734;11.510;2022-12-18T08:18:04;29.65;;;11.02;;
13108;SDS011;6620;53.734;11.510;2022-12-18T08:20:29;30.15;;;11.73;;
13108;SDS011;6620;53.734;11.510;2022-12-18T08:22:54;26.77;;;10.95;;
13108;SDS011;6620;53.734;11.510;2022-12-18T08:25:20;29.60;;;11.18;;
13108;SDS011;6620;53.734;11.510;2022-12-18T08:27:45;26.98;;;11.07;;
13108;SDS011;6620;53.734;11.510;2022-12-18T08:30:11;26.60;;;11.55;;
13108;SDS011;6620;53.734;11.510;2022-12-18T08:32:36;27.25;;;10.55;;
13108;SDS011;6620;53.734;11.510;2022-12-18T08:35:01;28.73;;;10.45;;
13108;SDS011;6620;53.734;11.510;2022-12-18T08:37:27;32.28;;;12.38;;
13108;SDS011;6620;53.734;11.510;2022-12-18T08:39:52;29.02;;;13.20;;
13108;SDS011;6620;53.734;11.510;2022-12-18T08:42:18;32.58;;;12.45;;
13108;SDS011;6620;53.734;11.510;2022-12-18T08:45:02;31.23;;;12.20;;
13108;SDS011;6620;53.734;11.510;2022-12-18T08:47:28;32.17;;;11.30;;
13108;SDS011;6620;53.734;11.510;2022-12-18T08:49:54;28.25;;;11.48;;
13108;SDS011;6620;53.734;11.510;2022-12-18T08:52:19;26.98;;;12.43;;
13108;SDS011;6620;53.734;11.510;2022-12-18T08:54:44;32.33;;;12.27;;
13108;SDS011;6620;53.734;11.510;2022-12-18T08:57:10;33.75;;;12.15;;
13108;SDS011;6620;53.734;11.510;2022-12-18T08:59:35;29.60;;;11.73;;
13108;SDS011;6620;53.734;11.510;2022-12-18T09:02:00;31.15;;;11.00;;
13108;SDS011;6620;53.734;11.510;2022-12-18T09:04:26;35.28;;;13.27;;
13108;SDS011;6620;53.734;11.510;2022-12-18T09:06:51;31.20;;;12.35;;
13108;SDS011;6620;53.734;11.510;2022-12-18T09:09:16;33.00;;;13.13;;
13108;SDS011;6620;53.734;11.510;2022-12-18T09:11:42;34.45;;;12.63;;
13108;SDS011;6620;53.734;11.510;2022-12-18T09:14:08;33.40;;;13.27;;
13108;SDS011;6620;53.734;11.510;2022-12-18T09:16:33;33.50;;;12.50;;
13108;SDS011;6620;53.734;11.510;2022-12-18T09:19:00;33.97;;;14.73;;
13108;SDS011;6620;53.734;11.510;2022-12-18T09:21:26;42.60;;;17.55;;
13108;SDS011;6620;53.734;11.510;2022-12-18T09:23:53;27.73;;;11.10;;
13108;SDS011;6620;53.734;11.510;2022-12-18T09:26:18;35.95;;;13.90;;
13108;SDS011;6620;53.734;11.510;2022-12-18T09:28:44;38.00;;;14.68;;
13108;SDS011;6620;53.734;11.510;2022-12-18T09:31:11;33.80;;;14.02;;
13108;SDS011;6620;53.734;11.510;2022-12-18T09:33:36;37.95;;;15.07;;
13108;SDS011;6620;53.734;11.510;2022-12-18T09:36:02;33.08;;;14.45;;
13108;SDS011;6620;53.734;11.510;2022-12-18T09:38:28;33.40;;;13.30;;
13108;SDS011;6620;53.734;11.510;2022-12-18T09:40:56;33.92;;;15.02;;
13108;SDS011;6620;53.734;11.510;2022-12-18T09:43:28;33.70;;;13.57;;
13108;SDS011;6620;53.734;11.510;2022-12-18T09:45:59;41.38;;;15.02;;
13108;SDS011;6620;53.734;11.510;2022-12-18T09:48:27;31.98;;;13.35;;
13108;SDS011;6620;53.734;11.510;2022-12-18T09:50:55;43.03;;;16.05;;
13108;SDS011;6620;53.734;11.510;2022-12-18T09:53:23;43.95;;;16.02;;
13108;SDS011;6620;53.734;11.510;2022-12-18T09:55:49;33.88;;;13.50;;
13108;SDS011;6620;53.734;11.510;2022-12-18T10:00:41;33.83;;;14.43;;
13108;SDS011;6620;53.734;11.510;2022-12-18T10:03:10;40.22;;;16.52;;
13108;SDS011;6620;53.734;11.510;2022-12-18T10:10:43;39.45;;;15.40;;
13108;SDS011;6620;53.734;11.510;2022-12-18T10:15:49;38.03;;;14.40;;
13108;SDS011;6620;53.734;11.510;2022-12-18T10:18:20;46.85;;;16.25;;
13108;SDS011;6620;53.734;11.510;2022-12-18T10:20:49;34.63;;;15.02;;
13108;SDS011;6620;53.734;11.510;2022-12-18T10:25:45;46.97;;;16.87;;
13108;SDS011;6620;53.734;11.510;2022-12-18T10:28:15;44.40;;;15.98;;
13108;SDS011;6620;53.734;11.510;2022-12-18T10:30:41;40.97;;;16.58;;
13108;SDS011;6620;53.734;11.510;2022-12-18T10:33:10;50.45;;;16.95;;
13108;SDS011;6620;53.734;11.510;2022-12-18T10:35:37;38.97;;;14.98;;
13108;SDS011;6620;53.734;11.510;2022-12-18T10:43:14;48.35;;;16.83;;
13108;SDS011;6620;53.734;11.510;2022-12-18T10:45:40;34.95;;;13.90;;
13108;SDS011;6620;53.734;11.510;2022-12-18T10:48:18;37.25;;;14.85;;
13108;SDS011;6620;53.734;11.510;2022-12-18T10:50:46;42.95;;;15.82;;
13108;SDS011;6620;53.734;11.510;2022-12-18T10:53:14;40.85;;;15.60;;
13108;SDS011;6620;53.734;11.510;2022-12-18T10:55:44;43.65;;;16.67;;
13108;SDS011;6620;53.734;11.510;2022-12-18T10:58:16;36.40;;;14.65;;
13108;SDS011;6620;53.734;11.510;2022-12-18T11:00:45;41.45;;;15.98;;
13108;SDS011;6620;53.734;11.510;2022-12-18T11:03:45;39.95;;;15.57;;
13108;SDS011;6620;53.734;11.510;2022-12-18T11:08:35;39.15;;;15.07;;
13108;SDS011;6620;53.734;11.510;2022-12-18T11:11:01;34.38;;;14.30;;
13108;SDS011;6620;53.734;11.510;2022-12-18T11:13:27;38.63;;;15.10;;
13108;SDS011;6620;53.734;11.510;2022-12-18T11:15:53;39.88;;;14.95;;
13108;SDS011;6620;53.734;11.510;2022-12-18T11:18:20;40.88;;;13.80;;
13108;SDS011;6620;53.734;11.510;2022-12-18T11:20:54;36.22;;;14.15;;
13108;SDS011;6620;53.734;11.510;2022-12-18T11:23:20;44.45;;;15.50;;
13108;SDS011;6620;53.734;11.510;2022-12-18T11:26:05;37.83;;;15.40;;
13108;SDS011;6620;53.734;11.510;2022-12-18T11:31:08;36.13;;;13.73;;
13108;SDS011;6620;53.734;11.510;2022-12-18T11:33:34;33.72;;;13.85;;
13108;SDS011;6620;53.734;11.510;2022-12-18T11:36:01;40.60;;;16.02;;
13108;SDS011;6620;53.734;11.510;2022-12-18T11:38:39;31.65;;;12.82;;
13108;SDS011;6620;53.734;11.510;2022-12-18T11:44:08;33.42;;;12.55;;
13108;SDS011;6620;53.734;11.510;2022-12-18T11:46:39;32.30;;;13.02;;
13108;SDS011;6620;53.734;11.510;2022-12-18T11:49:17;38.22;;;14.90;;
13108;SDS011;6620;53.734;11.510;2022-12-18T11:54:12;38.25;;;15.18;;
13108;SDS011;6620;53.734;11.510;2022-12-18T12:16:55;34.10;;;14.43;;
13108;SDS011;6620;53.734;11.510;2022-12-18T12:21:58;35.78;;;14.13;;
13108;SDS011;6620;53.734;11.510;2022-12-18T12:27:26;32.63;;;13.50;;
13108;SDS011;6620;53.734;11.510;2022-12-18T12:29:50;37.53;;;13.57;;
13108;SDS011;6620;53.734;11.510;2022-12-18T12:32:22;31.10;;;12.68;;
13108;SDS011;6620;53.734;11.510;2022-12-18T12:39:55;35.15;;;13.70;;
13108;SDS011;6620;53.734;11.510;2022-12-18T12:42:34;34.65;;;13.30;;
13108;SDS011;6620;53.734;11.510;2022-12-18T12:45:23;35.95;;;14.75;;
13108;SDS011;6620;53.734;11.510;2022-12-18T12:47:51;32.22;;;13.35;;
13108;SDS011;6620;53.734;11.510;2022-12-18T12:50:18;35.40;;;13.60;;
13108;SDS011;6620;53.734;11.510;2022-12-18T12:52:54;31.63;;;12.65;;
13108;SDS011;6620;53.734;11.510;2022-12-18T12:55:24;30.00;;;13.40;;
13108;SDS011;6620;53.734;11.510;2022-12-18T13:00:24;35.17;;;14.52;;
13108;SDS011;6620;53.734;11.510;2022-12-18T13:02:52;31.60;;;13.55;;
13108;SDS011;6620;53.734;11.510;2022-12-18T13:05:24;32.80;;;14.38;;
13108;SDS011;6620;53.734;11.510;2022-12-18T13:08:11;39.10;;;17.17;;
13108;SDS011;6620;53.734;11.510;2022-12-18T13:10:37;36.63;;;14.07;;
13108;SDS011;6620;53.734;11.510;2022-12-18T13:13:12;35.58;;;15.73;;
13108;SDS011;6620;53.734;11.510;2022-12-18T13:15:42;38.97;;;15.90;;
13108;SDS011;6620;53.734;11.510;2022-12-18T13:23:01;35.28;;;14.70;;
13108;SDS011;6620;53.734;11.510;2022-12-18T13:25:37;37.25;;;15.13;;
13108;SDS011;6620;53.734;11.510;2022-12-18T13:28:06;35.80;;;15.00;;
13108;SDS011;6620;53.734;11.510;2022-12-18T13:33:41;28.83;;;14.20;;
13108;SDS011;6620;53.734;11.510;2022-12-18T13:40:56;36.88;;;15.45;;
13108;SDS011;6620;53.734;11.510;2022-12-18T13:46:06;34.80;;;14.23;;
13108;SDS011;6620;53.734;11.510;2022-12-18T13:48:47;37.58;;;14.75;;
13108;SDS011;6620;53.734;11.510;2022-12-18T13:51:13;36.17;;;14.82;;
13108;SDS011;6620;53.734;11.510;2022-12-18T13:53:43;36.17;;;14.95;;
13108;SDS011;6620;53.734;11.510;2022-12-18T13:56:09;33.13;;;14.00;;
13108;SDS011;6620;53.734;11.510;2022-12-18T13:58:39;34.10;;;14.65;;
13108;SDS011;6620;53.734;11.510;2022-12-18T14:01:05;39.53;;;14.20;;
13108;SDS011;6620;53.734;11.510;2022-12-18T14:03:30;34.08;;;14.50;;
13108;SDS011;6620;53.734;11.510;2022-12-18T14:06:02;34.97;;;15.02;;
13108;SDS011;6620;53.734;11.510;2022-12-18T14:08:33;37.55;;;14.65;;
13108;SDS011;6620;53.734;11.510;2022-12-18T14:10:59;32.58;;;13.48;;
13108;SDS011;6620;53.734;11.510;2022-12-18T14:13:27;35.50;;;14.38;;
13108;SDS011;6620;53.734;11.510;2022-12-18T14:15:53;33.20;;;14.30;;
13108;SDS011;6620;53.734;11.510;2022-12-18T14:20:47;34.60;;;13.93;;
13108;SDS011;6620;53.734;11.510;2022-12-18T14:23:29;32.78;;;14.18;;
13108;SDS011;6620;53.734;11.510;2022-12-18T14:28:19;36.80;;;14.82;;
13108;SDS011;6620;53.734;11.510;2022-12-18T14:30:46;34.15;;;14.77;;
13108;SDS011;6620;53.734;11.510;2022-12-18T14:33:13;39.63;;;15.98;;
13108;SDS011;6620;53.734;11.510;2022-12-18T14:38:21;36.40;;;14.77;;
13108;SDS011;6620;53.734;11.510;2022-12-18T14:40:47;39.13;;;15.30;;
13108;SDS011;6620;53.734;11.510;2022-12-18T14:43:12;36.40;;;14.45;;
13108;SDS011;6620;53.734;11.510;2022-12-18T14:45:44;34.60;;;15.07;;
13108;SDS011;6620;53.734;11.510;2022-12-18T14:50:36;33.83;;;14.27;;
13108;SDS011;6620;53.734;11.510;2022-12-18T14:53:01;37.10;;;14.63;;
13108;SDS011;6620;53.734;11.510;2022-12-18T14:55:26;36.22;;;15.77;;
13108;SDS011;6620;53.734;11.510;2022-12-18T14:57:52;32.20;;;13.75;;
13108;SDS011;6620;53.734;11.510;2022-12-18T15:00:19;36.22;;;14.88;;
13108;SDS011;6620;53.734;11.510;2022-12-18T15:02:49;37.63;;;14.43;;
13108;SDS011;6620;53.734;11.510;2022-12-18T15:05:20;33.53;;;15.65;;
13108;SDS011;6620;53.734;11.510;2022-12-18T15:07:46;40.83;;;16.52;;
13108;SDS011;6620;53.734;11.510;2022-12-18T15:12:44;42.30;;;15.68;;
13108;SDS011;6620;53.734;11.510;2022-12-18T15:15:43;39.60;;;14.07;;
13108;SDS011;6620;53.734;11.510;2022-12-18T15:20:48;37.92;;;15.75;;
13108;SDS011;6620;53.734;11.510;2022-12-18T15:23:18;37.97;;;16.00;;
13108;SDS011;6620;53.734;11.510;2022-12-18T15:25:44;32.63;;;13.45;;
13108;SDS011;6620;53.734;11.510;2022-12-18T15:28:15;40.78;;;16.48;;
13108;SDS011;6620;53.734;11.510;2022-12-18T15:30:57;39.85;;;16.38;;
13108;SDS011;6620;53.734;11.510;2022-12-18T15:33:26;29.95;;;13.15;;
13108;SDS011;6620;53.734;11.510;2022-12-18T15:36:02;33.00;;;14.27;;
13108;SDS011;6620;53.734;11.510;2022-12-18T15:38:27;40.08;;;16.08;;
13108;SDS011;6620;53.734;11.510;2022-12-18T15:40:53;33.33;;;14.73;;
13108;SDS011;6620;53.734;11.510;2022-12-18T15:43:19;41.10;;;16.52;;
13108;SDS011;6620;53.734;11.510;2022-12-18T15:46:02;38.83;;;15.98;;
13108;SDS011;6620;53.734;11.510;2022-12-18T15:48:27;34.35;;;15.65;;
13108;SDS011;6620;53.734;11.510;2022-12-18T15:50:53;40.55;;;16.20;;
13108;SDS011;6620;53.734;11.510;2022-12-18T15:53:18;40.80;;;16.50;;
13108;SDS011;6620;53.734;11.510;2022-12-18T15:55:44;41.42;;;15.65;;
13108;SDS011;6620;53.734;11.510;2022-12-18T15:58:28;47.25;;;18.15;;
13108;SDS011;6620;53.734;11.510;2022-12-18T16:00:53;39.10;;;17.57;;
13108;SDS011;6620;53.734;11.510;2022-12-18T16:03:19;49.40;;;18.60;;
13108;SDS011;6620;53.734;11.510;2022-12-18T16:05:44;37.23;;;16.53;;
13108;SDS011;6620;53.734;11.510;2022-12-18T16:08:09;41.27;;;17.37;;
13108;SDS011;6620;53.734;11.510;2022-12-18T16:10:34;45.50;;;19.43;;
13108;SDS011;6620;53.734;11.510;2022-12-18T16:13:00;48.20;;;18.13;;
13108;SDS011;6620;53.734;11.510;2022-12-18T16:15:25;45.40;;;18.40;;
13108;SDS011;6620;53.734;11.510;2022-12-18T16:17:50;44.53;;;16.73;;
13108;SDS011;6620;53.734;11.510;2022-12-18T16:20:17;41.95;;;17.65;;